createdAt,value
2022-11-19T00:01:34.656Z,17.70
2022-11-19T00:04:02.501Z,19.10
2022-11-19T00:06:30.275Z,16.30
2022-11-19T00:08:58.036Z,21.10
2022-11-19T00:11:46.225Z,22.80
2022-11-19T00:14:15.527Z,21.00
2022-11-19T00:16:44.225Z,20.00
2022-11-19T00:19:12.747Z,21.80
2022-11-19T00:21:40.784Z,25.10
2022-11-19T00:24:09.052Z,31.80
2022-11-19T00:26:36.836Z,33.40
2022-11-19T00:29:04.679Z,42.50
2022-11-19T00:31:32.521Z,29.30
2022-11-19T00:34:00.385Z,25.90
2022-11-19T00:36:28.255Z,21.90
2022-11-19T00:38:56.224Z,18.80
2022-11-19T00:41:23.968Z,19.30
2022-11-19T00:43:51.779Z,20.60
2022-11-19T00:46:22.281Z,18.10
2022-11-19T00:48:51.888Z,20.30
2022-11-19T00:51:20.775Z,18.90
2022-11-19T00:53:48.743Z,17.20
2022-11-19T00:56:19.388Z,18.50
2022-11-19T00:58:47.208Z,15.80
2022-11-19T01:01:16.055Z,17.00
2022-11-19T01:03:46.045Z,20.10
2022-11-19T01:06:18.836Z,19.10
2022-11-19T01:08:48.640Z,15.40
2022-11-19T01:11:24.911Z,18.00
2022-11-19T01:13:52.737Z,20.80
2022-11-19T01:16:24.307Z,20.00
2022-11-19T01:18:52.283Z,18.90
2022-11-19T01:21:22.107Z,19.10
2022-11-19T01:23:50.405Z,20.20
2022-11-19T01:26:18.486Z,22.50
2022-11-19T01:28:46.576Z,23.30
2022-11-19T01:31:19.564Z,22.30
2022-11-19T01:33:47.705Z,17.40
2022-11-19T01:36:33.376Z,21.40
2022-11-19T01:39:01.131Z,17.00
2022-11-19T01:41:31.247Z,18.70
2022-11-19T01:44:01.558Z,20.60
2022-11-19T01:46:32.126Z,21.10
2022-11-19T01:49:10.023Z,20.50
2022-11-19T01:51:57.472Z,20.40
2022-11-19T01:54:33.996Z,19.40
2022-11-19T01:57:03.693Z,21.10
2022-11-19T01:59:31.424Z,16.80
2022-11-19T02:01:59.229Z,16.60
2022-11-19T02:04:27.086Z,21.70
2022-11-19T02:06:54.994Z,20.40
2022-11-19T02:09:24.770Z,17.80
2022-11-19T02:12:20.175Z,18.40
2022-11-19T02:15:15.815Z,17.70
2022-11-19T02:18:28.039Z,21.70
2022-11-19T02:21:03.854Z,17.90
2022-11-19T02:24:29.006Z,17.10
2022-11-19T02:27:20.924Z,22.40
2022-11-19T02:30:08.138Z,24.10
2022-11-19T02:32:44.985Z,14.20
2022-11-19T02:35:28.463Z,19.00
2022-11-19T02:38:02.748Z,17.70
2022-11-19T02:40:37.148Z,18.00
2022-11-19T02:43:17.211Z,18.00
2022-11-19T02:45:50.597Z,20.30
2022-11-19T02:48:23.305Z,18.00
2022-11-19T02:50:56.471Z,14.10
2022-11-19T02:53:24.359Z,26.40
2022-11-19T02:56:11.045Z,25.80
2022-11-19T02:59:10.955Z,21.10
2022-11-19T03:02:00.270Z,20.20
2022-11-19T03:04:30.961Z,20.30
2022-11-19T03:07:11.186Z,19.50
2022-11-19T03:09:46.263Z,17.00
2022-11-19T03:12:28.350Z,18.90
2022-11-19T03:16:02.716Z,22.90
2022-11-19T03:18:39.407Z,15.80
2022-11-19T03:21:16.230Z,22.50
2022-11-19T03:23:49.710Z,21.10
2022-11-19T03:26:34.069Z,20.70
2022-11-19T03:29:08.729Z,19.00
2022-11-19T03:31:36.486Z,18.70
2022-11-19T03:34:09.858Z,20.60
2022-11-19T03:36:39.950Z,20.60
2022-11-19T03:39:11.729Z,18.10
2022-11-19T03:41:40.769Z,18.30
2022-11-19T03:44:25.781Z,16.40
2022-11-19T03:47:00.602Z,15.00
2022-11-19T03:49:33.637Z,16.60
2022-11-19T03:52:13.934Z,17.20
2022-11-19T03:54:41.920Z,20.80
2022-11-19T03:57:12.819Z,22.20
2022-11-19T03:59:40.658Z,20.80
2022-11-19T04:02:10.030Z,18.60
2022-11-19T04:04:39.042Z,23.00
2022-11-19T04:07:18.587Z,20.00
2022-11-19T04:09:46.444Z,25.10
2022-11-19T04:12:20.556Z,24.20
2022-11-19T04:14:48.848Z,22.40
2022-11-19T04:17:16.832Z,22.30
2022-11-19T04:19:44.855Z,22.20
2022-11-19T04:22:12.678Z,20.90
2022-11-19T04:24:40.490Z,23.60
2022-11-19T04:27:08.255Z,26.80
2022-11-19T04:29:36.053Z,29.70
2022-11-19T04:32:04.018Z,29.20
2022-11-19T04:34:31.790Z,25.70
2022-11-19T04:36:59.539Z,14.60
2022-11-19T04:39:27.340Z,13.40
2022-11-19T04:41:55.080Z,12.60
2022-11-19T04:44:22.925Z,12.90
2022-11-19T04:46:50.678Z,9.80
2022-11-19T04:49:18.703Z,11.70
2022-11-19T04:51:46.710Z,13.60
2022-11-19T04:54:14.446Z,13.00
2022-11-19T04:56:42.332Z,11.70
2022-11-19T04:59:10.070Z,10.20
2022-11-19T05:01:38.013Z,9.30
2022-11-19T05:04:05.892Z,8.70
2022-11-19T05:06:33.690Z,10.30
2022-11-19T05:09:01.468Z,10.60
2022-11-19T05:11:29.193Z,10.30
2022-11-19T05:13:56.958Z,9.40
2022-11-19T05:16:24.744Z,10.20
2022-11-19T05:18:52.523Z,11.20
2022-11-19T05:21:20.270Z,10.40
2022-11-19T05:23:48.110Z,8.80
2022-11-19T05:26:15.925Z,9.40
2022-11-19T05:28:43.692Z,12.10
2022-11-19T05:31:11.468Z,13.30
2022-11-19T05:33:39.190Z,14.90
2022-11-19T05:36:07.626Z,11.00
2022-11-19T05:38:35.440Z,16.10
2022-11-19T05:41:03.229Z,19.90
2022-11-19T05:43:30.953Z,22.20
2022-11-19T05:46:02.294Z,27.30
2022-11-19T05:48:30.112Z,27.50
2022-11-19T05:50:57.891Z,19.40
2022-11-19T05:53:26.355Z,21.30
2022-11-19T05:55:54.109Z,18.10
2022-11-19T05:58:21.861Z,24.80
2022-11-19T06:00:55.307Z,25.20
2022-11-19T06:03:23.107Z,18.20
2022-11-19T06:05:50.934Z,17.50
2022-11-19T06:08:18.761Z,28.10
2022-11-19T06:10:46.476Z,26.70
2022-11-19T06:13:14.240Z,26.70
2022-11-19T06:15:41.966Z,19.40
2022-11-19T06:18:09.794Z,20.60
2022-11-19T06:20:37.676Z,16.70
2022-11-19T06:23:05.431Z,15.70
2022-11-19T06:25:33.226Z,24.70
2022-11-19T06:28:01.009Z,22.70
2022-11-19T06:30:28.833Z,19.90
2022-11-19T06:32:56.688Z,24.50
2022-11-19T06:35:24.491Z,18.70
2022-11-19T06:37:52.279Z,20.70
2022-11-19T06:40:20.044Z,30.90
2022-11-19T06:42:50.958Z,19.90
2022-11-19T06:45:19.171Z,23.10
2022-11-19T06:47:47.575Z,20.30
2022-11-19T06:50:15.420Z,19.90
2022-11-19T06:52:43.183Z,20.00
2022-11-19T06:55:11.114Z,19.30
2022-11-19T06:57:38.902Z,21.60
2022-11-19T07:00:07.796Z,19.30
2022-11-19T07:02:35.614Z,25.70
2022-11-19T07:05:04.766Z,19.40
2022-11-19T07:07:32.617Z,25.30
2022-11-19T07:10:01.096Z,23.10
2022-11-19T07:12:28.911Z,25.20
2022-11-19T07:15:02.650Z,48.40
2022-11-19T07:17:32.167Z,44.30
2022-11-19T07:20:00.123Z,26.40
2022-11-19T07:22:27.970Z,31.10
2022-11-19T07:24:56.822Z,33.10
2022-11-19T07:27:24.702Z,24.80
2022-11-19T07:29:52.450Z,16.60
2022-11-19T07:32:20.219Z,18.10
2022-11-19T07:34:48.039Z,22.80
2022-11-19T07:37:15.845Z,21.50
2022-11-19T07:39:43.663Z,27.90
2022-11-19T07:42:30.071Z,21.20
2022-11-19T07:44:57.840Z,26.70
2022-11-19T07:47:25.660Z,22.60
2022-11-19T07:49:54.409Z,21.40
2022-11-19T07:52:22.486Z,20.00
2022-11-19T07:54:50.300Z,22.60
2022-11-19T07:57:18.107Z,22.30
2022-11-19T07:59:45.974Z,17.00
2022-11-19T08:02:14.060Z,24.70
2022-11-19T08:04:42.877Z,21.40
2022-11-19T08:07:10.702Z,17.90
2022-11-19T08:09:38.595Z,22.80
2022-11-19T08:12:06.638Z,17.50
2022-11-19T08:14:34.418Z,21.90
2022-11-19T08:17:21.061Z,22.40
2022-11-19T08:19:48.812Z,18.70
2022-11-19T08:22:16.553Z,19.20
2022-11-19T08:24:44.707Z,17.40
2022-11-19T08:27:13.091Z,15.50
2022-11-19T08:29:40.905Z,15.10
2022-11-19T08:32:10.725Z,18.80
2022-11-19T08:34:38.594Z,14.50
2022-11-19T08:37:06.359Z,15.10
2022-11-19T08:39:34.129Z,16.10
2022-11-19T08:42:20.690Z,14.90
2022-11-19T08:44:48.445Z,12.70
2022-11-19T08:47:16.444Z,10.90
2022-11-19T08:49:44.218Z,15.90
2022-11-19T08:52:13.458Z,13.90
2022-11-19T08:54:41.245Z,14.80
2022-11-19T08:57:09.013Z,15.20
2022-11-19T08:59:36.772Z,13.90
2022-11-19T09:02:04.560Z,13.60
2022-11-19T09:04:32.451Z,21.40
2022-11-19T09:07:00.224Z,17.50
2022-11-19T09:09:28.070Z,16.50
2022-11-19T09:11:56.105Z,13.80
2022-11-19T09:14:23.887Z,13.90
2022-11-19T09:16:51.694Z,12.90
2022-11-19T09:19:19.686Z,14.10
2022-11-19T09:21:47.546Z,18.10
2022-11-19T09:24:15.327Z,13.90
2022-11-19T09:26:44.217Z,12.10
2022-11-19T09:29:14.355Z,15.80
2022-11-19T09:31:42.067Z,21.00
2022-11-19T09:34:09.816Z,17.00
2022-11-19T09:36:37.622Z,13.90
2022-11-19T09:39:05.457Z,15.90
2022-11-19T09:41:48.862Z,12.70
2022-11-19T09:44:29.139Z,18.00
2022-11-19T09:47:27.355Z,17.90
2022-11-19T09:50:17.028Z,13.20
2022-11-19T09:53:16.020Z,11.00
2022-11-19T09:55:45.888Z,11.90
2022-11-19T09:58:35.046Z,13.60
2022-11-19T10:01:03.020Z,15.30
2022-11-19T10:03:33.867Z,21.30
2022-11-19T10:06:14.456Z,14.80
2022-11-19T10:09:27.788Z,14.00
2022-11-19T10:12:33.136Z,15.30
2022-11-19T10:15:18.493Z,14.30
2022-11-19T10:18:05.582Z,12.20
2022-11-19T10:21:00.225Z,10.70
2022-11-19T10:23:50.235Z,15.00
2022-11-19T10:26:21.489Z,20.00
2022-11-19T10:28:55.205Z,16.60
2022-11-19T10:31:28.337Z,16.10
2022-11-19T10:34:11.196Z,15.00
2022-11-19T10:36:50.936Z,17.20
2022-11-19T10:39:48.013Z,17.20
2022-11-19T10:42:36.918Z,16.40
2022-11-19T10:45:19.267Z,13.00
2022-11-19T10:48:12.888Z,12.90
2022-11-19T10:50:42.103Z,17.10
2022-11-19T10:53:29.258Z,15.50
2022-11-19T10:56:01.924Z,17.40
2022-11-19T10:58:34.132Z,16.90
2022-11-19T11:01:03.357Z,21.40
2022-11-19T11:03:37.034Z,19.50
2022-11-19T11:06:07.647Z,12.80
2022-11-19T11:08:52.773Z,17.30
2022-11-19T11:11:50.430Z,13.30
2022-11-19T11:14:41.630Z,14.40
2022-11-19T11:17:25.852Z,12.60
2022-11-19T11:20:06.734Z,16.20
2022-11-19T11:22:34.512Z,17.50
2022-11-19T11:25:07.053Z,13.80
2022-11-19T11:27:35.391Z,13.20
2022-11-19T11:30:13.611Z,13.10
2022-11-19T11:32:41.787Z,14.00
2022-11-19T11:35:36.175Z,13.00
2022-11-19T11:38:04.032Z,18.90
2022-11-19T11:40:31.797Z,24.00
2022-11-19T11:42:59.568Z,15.20
2022-11-19T11:45:32.524Z,22.60
2022-11-19T11:48:19.051Z,16.30
2022-11-19T11:50:47.047Z,21.60
2022-11-19T11:53:16.590Z,16.20
2022-11-19T11:55:44.386Z,14.40
2022-11-19T11:58:33.632Z,13.90
2022-11-19T12:01:18.512Z,12.10
2022-11-19T12:03:57.657Z,13.30
2022-11-19T12:06:45.220Z,13.50
2022-11-19T12:09:24.788Z,13.20
2022-11-19T12:12:05.552Z,13.60
2022-11-19T12:14:50.074Z,12.50
2022-11-19T12:17:33.456Z,11.60
2022-11-19T12:20:22.637Z,14.80
2022-11-19T12:23:38.279Z,15.20
2022-11-19T12:26:18.701Z,13.10
2022-11-19T12:29:03.472Z,13.90
2022-11-19T12:32:09.574Z,13.10
2022-11-19T12:35:16.634Z,14.60
2022-11-19T12:38:09.578Z,14.80
2022-11-19T12:40:59.000Z,18.20
2022-11-19T12:43:52.162Z,14.20
2022-11-19T12:46:52.934Z,15.00
2022-11-19T12:49:32.803Z,14.60
2022-11-19T12:52:35.941Z,13.20
2022-11-19T12:55:12.924Z,12.70
2022-11-19T12:57:52.045Z,12.90
2022-11-19T13:00:24.428Z,14.00
2022-11-19T13:03:16.652Z,15.70
2022-11-19T13:05:56.375Z,13.00
2022-11-19T13:08:30.455Z,10.50
2022-11-19T13:11:15.407Z,12.90
2022-11-19T13:14:26.964Z,11.60
2022-11-19T13:16:54.837Z,15.70
2022-11-19T13:19:29.667Z,11.30
2022-11-19T13:22:06.439Z,11.20
2022-11-19T13:24:45.572Z,12.80
2022-11-19T13:27:23.039Z,12.00
2022-11-19T13:30:26.959Z,14.10
2022-11-19T13:33:24.983Z,10.70
2022-11-19T13:36:19.853Z,13.70
2022-11-19T13:38:53.316Z,12.50
2022-11-19T13:42:07.844Z,13.50
2022-11-19T13:44:41.107Z,13.70
2022-11-19T13:47:24.322Z,13.10
2022-11-19T13:50:02.296Z,16.80
2022-11-19T13:52:34.759Z,11.80
2022-11-19T13:55:02.571Z,12.10
2022-11-19T13:57:42.686Z,14.20
2022-11-19T14:00:25.101Z,16.80
2022-11-19T14:03:17.838Z,20.10
2022-11-19T14:06:36.749Z,16.20
2022-11-19T14:09:39.022Z,17.20
2022-11-19T14:12:54.320Z,13.60
2022-11-19T14:16:16.725Z,10.40
2022-11-19T14:19:05.904Z,15.50
2022-11-19T14:21:52.573Z,16.10
2022-11-19T14:24:45.377Z,13.80
2022-11-19T14:27:17.262Z,17.40
2022-11-19T14:29:45.036Z,15.80
2022-11-19T14:32:12.822Z,16.70
2022-11-19T14:35:02.054Z,25.60
2022-11-19T14:37:46.878Z,39.30
2022-11-19T14:40:20.987Z,32.20
2022-11-19T14:43:19.999Z,30.80
2022-11-19T14:46:07.690Z,26.20
2022-11-19T14:48:41.687Z,20.90
2022-11-19T14:51:37.571Z,22.60
2022-11-19T14:54:14.484Z,20.60
2022-11-19T14:56:46.042Z,23.50
2022-11-19T14:59:16.905Z,25.90
2022-11-19T15:02:26.857Z,26.50
2022-11-19T15:05:13.051Z,24.40
2022-11-19T15:07:45.257Z,28.40
2022-11-19T15:10:13.116Z,24.10
2022-11-19T15:12:43.994Z,29.40
2022-11-19T15:15:21.078Z,27.30
2022-11-19T15:18:02.439Z,37.30
2022-11-19T15:20:37.801Z,36.00
2022-11-19T15:23:38.968Z,54.70
2022-11-19T15:27:05.422Z,48.70
2022-11-19T15:30:06.790Z,41.90
2022-11-19T15:32:56.568Z,18.70
2022-11-19T15:36:04.617Z,23.80
2022-11-19T15:39:04.816Z,25.10
2022-11-19T15:41:38.372Z,41.80
2022-11-19T15:44:09.719Z,69.20
2022-11-19T15:46:48.750Z,84.10
2022-11-19T15:49:23.637Z,53.60
2022-11-19T15:52:01.875Z,50.50
2022-11-19T15:54:34.477Z,44.70
2022-11-19T15:57:22.293Z,49.30
2022-11-19T15:59:59.893Z,37.30
2022-11-19T16:02:37.233Z,34.40
2022-11-19T16:05:06.527Z,32.20
2022-11-19T16:07:34.373Z,30.20
2022-11-19T16:10:02.254Z,23.80
2022-11-19T16:12:49.148Z,24.10
2022-11-19T16:15:45.087Z,27.20
2022-11-19T16:18:18.264Z,29.60
2022-11-19T16:20:48.657Z,29.80
2022-11-19T16:23:21.362Z,32.20
2022-11-19T16:25:49.302Z,42.50
2022-11-19T16:28:30.513Z,41.50
2022-11-19T16:31:03.229Z,38.70
2022-11-19T16:33:32.465Z,32.00
2022-11-19T16:36:15.305Z,27.50
2022-11-19T16:38:46.539Z,33.90
2022-11-19T16:41:35.404Z,38.90
2022-11-19T16:44:05.486Z,43.80
2022-11-19T16:46:34.112Z,38.50
2022-11-19T16:49:03.651Z,37.40
2022-11-19T16:51:37.510Z,37.90
2022-11-19T16:54:10.285Z,34.80
2022-11-19T16:56:44.510Z,34.90
2022-11-19T16:59:21.528Z,46.50
2022-11-19T17:01:56.769Z,51.40
2022-11-19T17:04:28.283Z,40.50
2022-11-19T17:06:58.929Z,41.50
2022-11-19T17:09:41.639Z,37.70
2022-11-19T17:12:30.028Z,33.20
2022-11-19T17:14:59.766Z,34.60
2022-11-19T17:17:41.544Z,21.10
2022-11-19T17:20:32.187Z,36.20
2022-11-19T17:23:00.264Z,43.40
2022-11-19T17:25:28.096Z,35.70
2022-11-19T17:27:58.979Z,34.10
2022-11-19T17:30:31.709Z,32.20
2022-11-19T17:33:01.710Z,33.10
2022-11-19T17:35:40.487Z,34.50
2022-11-19T17:38:20.310Z,33.90
2022-11-19T17:40:53.176Z,39.00
2022-11-19T17:43:55.692Z,29.70
2022-11-19T17:46:25.452Z,25.80
2022-11-19T17:48:53.520Z,31.90
2022-11-19T17:51:23.374Z,41.60
2022-11-19T17:53:51.949Z,34.00
2022-11-19T17:56:29.812Z,33.60
2022-11-19T17:58:59.801Z,30.00
2022-11-19T18:01:27.991Z,42.00
2022-11-19T18:03:55.982Z,37.90
2022-11-19T18:06:23.795Z,41.50
2022-11-19T18:08:51.643Z,53.90
2022-11-19T18:11:22.343Z,53.90
2022-11-19T18:13:52.461Z,55.00
2022-11-19T18:16:25.681Z,45.60
2022-11-19T18:18:53.469Z,47.40
2022-11-19T18:21:22.368Z,40.30
2022-11-19T18:23:51.509Z,32.20
2022-11-19T18:26:22.512Z,35.80
2022-11-19T18:28:50.350Z,29.10
2022-11-19T18:31:25.375Z,49.70
2022-11-19T18:33:54.589Z,38.80
2022-11-19T18:36:22.792Z,31.30
2022-11-19T18:38:51.834Z,40.20
2022-11-19T18:41:19.862Z,40.60
2022-11-19T18:44:06.646Z,39.80
2022-11-19T18:46:34.604Z,42.80
2022-11-19T18:49:02.661Z,46.20
2022-11-19T18:51:31.169Z,47.00
2022-11-19T18:53:59.017Z,44.40
2022-11-19T18:56:27.251Z,35.10
2022-11-19T18:58:56.424Z,30.70
2022-11-19T19:01:26.056Z,44.20
2022-11-19T19:03:53.931Z,42.40
2022-11-19T19:06:23.244Z,37.40
2022-11-19T19:08:51.181Z,47.00
2022-11-19T19:11:37.588Z,40.10
2022-11-19T19:14:05.497Z,44.40
2022-11-19T19:16:34.856Z,44.60
2022-11-19T19:19:03.533Z,53.70
2022-11-19T19:21:31.751Z,48.70
2022-11-19T19:23:59.594Z,48.50
2022-11-19T19:26:27.460Z,51.30
2022-11-19T19:28:55.323Z,55.50
2022-11-19T19:31:23.511Z,57.90
2022-11-19T19:33:51.622Z,60.50
2022-11-19T19:36:20.151Z,64.50
2022-11-19T19:38:48.030Z,62.60
2022-11-19T19:41:25.614Z,70.50
2022-11-19T19:43:55.036Z,58.70
2022-11-19T19:46:23.761Z,55.10
2022-11-19T19:48:53.468Z,56.10
2022-11-19T19:51:23.674Z,56.80
2022-11-19T19:53:52.640Z,53.10
2022-11-19T19:56:31.546Z,47.80
2022-11-19T19:59:00.033Z,41.30
2022-11-19T20:01:33.080Z,54.30
2022-11-19T20:04:10.014Z,57.90
2022-11-19T20:06:41.628Z,65.10
2022-11-19T20:09:09.844Z,73.40
2022-11-19T20:11:37.840Z,56.10
2022-11-19T20:14:05.741Z,61.90
2022-11-19T20:16:33.961Z,74.10
2022-11-19T20:19:02.117Z,76.30
2022-11-19T20:21:33.792Z,64.30
2022-11-19T20:24:07.189Z,60.90
2022-11-19T20:26:39.900Z,71.10
2022-11-19T20:29:09.035Z,60.60
2022-11-19T20:31:36.984Z,44.80
2022-11-19T20:34:05.425Z,54.30
2022-11-19T20:36:34.643Z,45.20
2022-11-19T20:39:02.765Z,47.40
2022-11-19T20:41:49.467Z,36.80
2022-11-19T20:44:21.518Z,41.90
2022-11-19T20:47:01.003Z,50.70
2022-11-19T20:49:34.542Z,55.60
2022-11-19T20:52:03.329Z,53.80
2022-11-19T20:54:31.699Z,56.60
2022-11-19T20:56:59.976Z,56.90
2022-11-19T20:59:28.011Z,51.70
2022-11-19T21:01:56.484Z,49.50
2022-11-19T21:04:25.736Z,46.80
2022-11-19T21:06:56.593Z,43.40
2022-11-19T21:09:25.202Z,46.20
2022-11-19T21:11:53.445Z,42.40
2022-11-19T21:14:21.291Z,48.20
2022-11-19T21:16:49.162Z,54.70
2022-11-19T21:19:17.010Z,50.40
2022-11-19T21:21:45.703Z,60.90
2022-11-19T21:24:13.669Z,50.40
2022-11-19T21:26:41.637Z,64.80
2022-11-19T21:29:09.520Z,51.90
2022-11-19T21:31:48.051Z,54.60
2022-11-19T21:34:20.628Z,56.30
2022-11-19T21:36:48.818Z,53.20
2022-11-19T21:39:17.616Z,59.50
2022-11-19T21:41:45.832Z,47.80
2022-11-19T21:44:18.330Z,47.00
2022-11-19T21:46:49.541Z,50.90
2022-11-19T21:49:17.451Z,50.70
2022-11-19T21:51:45.401Z,52.10
2022-11-19T21:54:13.194Z,57.40
2022-11-19T21:56:40.989Z,63.00
2022-11-19T21:59:08.768Z,43.80
2022-11-19T22:01:36.564Z,60.20
2022-11-19T22:04:04.923Z,68.50
2022-11-19T22:06:32.788Z,70.90
2022-11-19T22:09:00.627Z,65.10
2022-11-19T22:11:28.609Z,61.30
2022-11-19T22:14:00.345Z,58.50
2022-11-19T22:16:29.120Z,54.00
2022-11-19T22:18:57.086Z,59.90
2022-11-19T22:21:25.794Z,59.50
2022-11-19T22:23:53.658Z,53.60
2022-11-19T22:26:21.591Z,60.50
2022-11-19T22:28:49.785Z,68.80
2022-11-19T22:31:17.726Z,74.20
2022-11-19T22:33:47.873Z,83.00
2022-11-19T22:36:15.702Z,66.50
2022-11-19T22:38:43.563Z,60.40
2022-11-19T22:41:33.093Z,60.20
2022-11-19T22:44:01.080Z,68.00
2022-11-19T22:46:28.834Z,66.10
2022-11-19T22:48:56.630Z,63.50
2022-11-19T22:51:25.202Z,67.30
2022-11-19T22:53:54.710Z,60.50
2022-11-19T22:56:25.186Z,63.70
2022-11-19T22:58:53.281Z,66.80
2022-11-19T23:01:30.204Z,54.30
2022-11-19T23:03:59.814Z,60.50
2022-11-19T23:06:27.799Z,54.50
2022-11-19T23:08:55.567Z,58.00
2022-11-19T23:11:42.667Z,48.30
2022-11-19T23:14:14.054Z,51.70
2022-11-19T23:16:41.950Z,50.20
2022-11-19T23:19:10.877Z,45.10
2022-11-19T23:21:38.903Z,57.10
2022-11-19T23:24:07.360Z,59.50
2022-11-19T23:26:35.220Z,60.50
2022-11-19T23:29:03.032Z,58.60
2022-11-19T23:31:35.869Z,53.10
2022-11-19T23:34:03.963Z,55.40
2022-11-19T23:36:42.579Z,52.20
2022-11-19T23:39:15.276Z,45.10
2022-11-19T23:41:43.653Z,45.80
2022-11-19T23:44:11.471Z,33.90
2022-11-19T23:46:39.416Z,46.10
2022-11-19T23:49:07.173Z,44.70
2022-11-19T23:51:37.240Z,31.50
2022-11-19T23:54:05.529Z,52.80
2022-11-19T23:56:34.316Z,54.80
2022-11-19T23:59:02.786Z,59.20
